createdAt,value
2023-04-14T00:00:38.954Z,100.00
2023-04-14T00:04:41.912Z,100.00
2023-04-14T00:08:44.703Z,100.00
2023-04-14T00:12:47.383Z,100.00
2023-04-14T00:16:51.617Z,100.00
2023-04-14T00:20:54.530Z,100.00
2023-04-14T00:24:57.252Z,100.00
2023-04-14T00:29:00.161Z,100.00
2023-04-14T00:33:04.580Z,100.00
2023-04-14T00:37:07.447Z,100.00
2023-04-14T00:41:10.275Z,100.00
2023-04-14T00:45:14.071Z,100.00
2023-04-14T00:49:18.153Z,100.00
2023-04-14T00:53:21.639Z,100.00
2023-04-14T00:57:24.509Z,100.00
2023-04-14T01:01:29.003Z,100.00
2023-04-14T01:05:33.793Z,100.00
2023-04-14T01:09:37.232Z,100.00
2023-04-14T01:13:50.755Z,100.00
2023-04-14T01:18:01.362Z,100.00
2023-04-14T01:22:08.632Z,100.00
2023-04-14T01:26:20.776Z,100.00
2023-04-14T01:30:47.657Z,100.00
2023-04-14T14:41:42.513Z,34.18
2023-04-14T14:45:45.761Z,34.24
2023-04-14T14:49:58.806Z,34.28
2023-04-14T14:54:09.914Z,35.16
2023-04-14T14:58:14.622Z,34.68
2023-04-14T15:02:17.556Z,34.01
2023-04-14T15:06:20.477Z,32.68
2023-04-14T15:10:23.246Z,33.16
2023-04-14T15:14:27.410Z,32.51
2023-04-14T15:18:30.121Z,32.21
2023-04-14T15:22:32.870Z,33.51
2023-04-14T15:26:36.047Z,33.98
2023-04-14T15:30:40.180Z,34.17
2023-04-14T15:34:42.890Z,34.11
2023-04-14T15:38:47.006Z,34.51
2023-04-14T15:42:49.745Z,35.47
2023-04-14T15:46:54.290Z,34.97
2023-04-14T15:50:56.936Z,35.48
2023-04-14T15:54:59.578Z,35.11
2023-04-14T15:59:02.252Z,35.40
2023-04-14T16:03:06.785Z,34.54
2023-04-14T16:07:09.590Z,34.89
2023-04-14T16:11:15.641Z,35.22
2023-04-14T16:15:18.524Z,35.47
2023-04-14T16:19:23.344Z,35.55
2023-04-14T16:23:27.069Z,35.05
2023-04-14T16:27:30.000Z,34.77
2023-04-14T16:31:32.862Z,35.71
2023-04-14T16:35:37.001Z,35.84
2023-04-14T16:39:40.358Z,36.36
2023-04-14T16:43:43.134Z,36.70
2023-04-14T16:47:45.915Z,37.08
2023-04-14T16:51:50.322Z,37.17
2023-04-14T16:55:53.171Z,37.29
2023-04-14T16:59:55.916Z,37.15
2023-04-14T17:03:58.870Z,37.54
2023-04-14T17:08:03.654Z,37.59
2023-04-14T17:12:07.002Z,37.61
2023-04-14T17:16:11.002Z,37.50
2023-04-14T17:20:14.945Z,37.89
2023-04-14T17:24:18.988Z,38.50
2023-04-14T17:28:22.733Z,39.11
2023-04-14T17:32:26.339Z,39.73
2023-04-14T17:36:29.439Z,39.95
2023-04-14T17:40:33.665Z,40.40
2023-04-14T17:44:36.372Z,40.86
2023-04-14T17:48:39.136Z,41.17
2023-04-14T17:52:41.885Z,41.90
2023-04-14T17:56:46.001Z,42.27
2023-04-14T18:00:48.784Z,42.46
2023-04-14T18:04:51.634Z,42.68
2023-04-14T18:08:54.343Z,42.99
2023-04-14T18:12:58.391Z,43.39
2023-04-14T18:17:01.227Z,43.78
2023-04-14T18:21:04.208Z,44.02
2023-04-14T18:25:09.068Z,44.55
2023-04-14T18:29:13.145Z,44.90
2023-04-14T18:33:20.831Z,45.38
2023-04-14T18:37:28.626Z,45.93
2023-04-14T18:41:31.478Z,46.08
2023-04-14T18:45:36.053Z,46.63
2023-04-14T18:49:39.419Z,46.61
2023-04-14T18:53:44.012Z,47.15
2023-04-14T18:57:46.898Z,47.32
2023-04-14T19:01:51.043Z,47.34
2023-04-14T19:05:55.390Z,48.06
2023-04-14T19:09:58.253Z,48.08
2023-04-14T19:14:01.509Z,48.91
2023-04-14T19:18:05.893Z,49.30
2023-04-14T19:22:08.650Z,49.34
2023-04-14T19:26:13.421Z,49.75
2023-04-14T19:30:16.549Z,50.29
2023-04-14T19:34:20.670Z,50.64
2023-04-14T19:38:23.708Z,50.94
2023-04-14T19:42:26.653Z,51.25
2023-04-14T19:46:29.476Z,51.48
2023-04-14T19:50:33.558Z,51.07
2023-04-14T19:54:37.793Z,51.13
2023-04-14T19:58:40.527Z,51.71
2023-04-14T20:02:43.587Z,51.94
2023-04-14T20:06:47.750Z,52.44
2023-04-14T20:10:52.670Z,52.68
2023-04-14T20:14:55.440Z,52.88
2023-04-14T20:18:58.143Z,53.24
2023-04-14T20:23:02.494Z,52.75
2023-04-14T20:27:05.292Z,52.60
2023-04-14T20:31:08.812Z,52.91
2023-04-14T20:35:11.635Z,53.19
2023-04-14T20:39:15.684Z,53.38
2023-04-14T20:43:18.327Z,53.66
2023-04-14T20:47:21.089Z,54.22
2023-04-14T20:51:24.028Z,54.58
2023-04-14T20:55:28.422Z,55.19
2023-04-14T20:59:36.173Z,55.68
2023-04-14T21:03:39.333Z,56.18
2023-04-14T21:07:43.699Z,56.55
2023-04-14T21:11:47.911Z,57.07
2023-04-14T21:16:10.763Z,57.54
2023-04-14T21:20:14.213Z,58.28
2023-04-14T21:24:16.874Z,58.62
2023-04-14T21:28:20.989Z,59.40
2023-04-14T21:32:24.016Z,59.91
2023-04-14T21:36:27.336Z,60.80
2023-04-14T21:40:30.260Z,61.42
2023-04-14T21:44:34.326Z,62.04
2023-04-14T21:48:37.496Z,62.70
2023-04-14T21:52:40.584Z,63.60
2023-04-14T21:56:44.980Z,64.38
2023-04-14T22:00:50.685Z,65.01
2023-04-14T22:04:53.506Z,65.45
2023-04-14T22:08:56.676Z,66.81
2023-04-14T22:12:59.602Z,67.30
2023-04-14T22:17:03.991Z,68.17
2023-04-14T22:21:07.209Z,68.82
2023-04-14T22:25:11.511Z,69.89
2023-04-14T22:29:14.200Z,70.40
2023-04-14T22:33:18.268Z,70.63
2023-04-14T22:37:21.434Z,71.58
2023-04-14T22:41:24.830Z,71.92
2023-04-14T22:45:27.562Z,72.74
2023-04-14T22:49:32.023Z,72.84
2023-04-14T22:53:34.792Z,74.05
2023-04-14T22:57:37.501Z,74.14
2023-04-14T23:01:40.501Z,75.02
2023-04-14T23:05:45.122Z,75.41
2023-04-14T23:09:47.793Z,75.81
2023-04-14T23:13:51.351Z,76.27
2023-04-14T23:17:54.220Z,76.80
2023-04-14T23:21:58.451Z,77.93
2023-04-14T23:26:01.703Z,78.13
2023-04-14T23:30:05.404Z,78.83
2023-04-14T23:34:10.744Z,79.27
2023-04-14T23:38:15.240Z,79.25
2023-04-14T23:42:17.912Z,79.70
2023-04-14T23:46:20.658Z,80.16
2023-04-14T23:50:23.519Z,80.81
2023-04-14T23:54:47.876Z,81.40
2023-04-14T23:58:50.602Z,81.69
